sensor_id;sensor_type;location;lat;lon;timestamp;temperature;humidity
69990;DHT22;57331;52.054;5.294;2022-09-14T00:01:26;17.50;32.80
69990;DHT22;57331;52.054;5.294;2022-09-14T00:03:57;17.50;32.80
69990;DHT22;57331;52.054;5.294;2022-09-14T00:08:54;16.50;45.30
69990;DHT22;57331;52.054;5.294;2022-09-14T00:11:22;16.60;38.00
69990;DHT22;57331;52.054;5.294;2022-09-14T00:16:23;17.50;46.30
69990;DHT22;57331;52.054;5.294;2022-09-14T00:18:52;17.60;46.40
69990;DHT22;57331;52.054;5.294;2022-09-14T00:23:46;16.90;46.00
69990;DHT22;57331;52.054;5.294;2022-09-14T00:26:17;17.30;33.40
69990;DHT22;57331;52.054;5.294;2022-09-14T00:28:50;16.70;46.00
69990;DHT22;57331;52.054;5.294;2022-09-14T00:31:18;17.30;33.60
69990;DHT22;57331;52.054;5.294;2022-09-14T00:33:46;18.50;47.30
69990;DHT22;57331;52.054;5.294;2022-09-14T00:36:19;17.20;33.70
69990;DHT22;57331;52.054;5.294;2022-09-14T00:38:46;17.00;39.00
69990;DHT22;57331;52.054;5.294;2022-09-14T00:41:19;17.20;33.70
69990;DHT22;57331;52.054;5.294;2022-09-14T00:43:55;18.20;47.20
69990;DHT22;57331;52.054;5.294;2022-09-14T00:46:24;17.20;33.70
69990;DHT22;57331;52.054;5.294;2022-09-14T00:48:53;17.20;34.00
69990;DHT22;57331;52.054;5.294;2022-09-14T00:53:50;18.60;47.70
69990;DHT22;57331;52.054;5.294;2022-09-14T00:56:17;17.20;33.90
69990;DHT22;57331;52.054;5.294;2022-09-14T00:58:46;17.10;34.00
69990;DHT22;57331;52.054;5.294;2022-09-14T01:06:28;17.20;34.20
69990;DHT22;57331;52.054;5.294;2022-09-14T01:09:28;17.20;34.10
69990;DHT22;57331;52.054;5.294;2022-09-14T01:15:05;17.10;34.30
69990;DHT22;57331;52.054;5.294;2022-09-14T01:17:51;17.10;34.30
69990;DHT22;57331;52.054;5.294;2022-09-14T01:20:33;15.90;46.80
69990;DHT22;57331;52.054;5.294;2022-09-14T01:28:28;15.80;46.80
69990;DHT22;57331;52.054;5.294;2022-09-14T01:31:00;17.10;34.70
69990;DHT22;57331;52.054;5.294;2022-09-14T01:33:36;15.80;47.10
69990;DHT22;57331;52.054;5.294;2022-09-14T01:36:06;18.40;48.70
69990;DHT22;57331;52.054;5.294;2022-09-14T01:38:42;17.80;48.50
69990;DHT22;57331;52.054;5.294;2022-09-14T01:41:13;18.20;48.60
69990;DHT22;57331;52.054;5.294;2022-09-14T01:43:54;16.70;38.20
69990;DHT22;57331;52.054;5.294;2022-09-14T01:46:27;16.40;36.60
69990;DHT22;57331;52.054;5.294;2022-09-14T01:49:03;16.90;43.80
69990;DHT22;57331;52.054;5.294;2022-09-14T01:51:47;17.00;34.70
69990;DHT22;57331;52.054;5.294;2022-09-14T01:54:29;17.00;34.80
69990;DHT22;57331;52.054;5.294;2022-09-14T01:59:36;16.90;35.00
69990;DHT22;57331;52.054;5.294;2022-09-14T02:02:38;16.90;34.80
69990;DHT22;57331;52.054;5.294;2022-09-14T02:07:49;15.70;37.20
69990;DHT22;57331;52.054;5.294;2022-09-14T02:10:17;18.00;49.00
69990;DHT22;57331;52.054;5.294;2022-09-14T02:12:45;16.90;35.10
69990;DHT22;57331;52.054;5.294;2022-09-14T02:15:13;17.00;35.20
69990;DHT22;57331;52.054;5.294;2022-09-14T02:17:41;15.70;35.00
69990;DHT22;57331;52.054;5.294;2022-09-14T02:20:36;15.80;47.60
69990;DHT22;57331;52.054;5.294;2022-09-14T02:25:30;15.70;47.40
69990;DHT22;57331;52.054;5.294;2022-09-14T02:27:57;18.40;48.90
69990;DHT22;57331;52.054;5.294;2022-09-14T02:30:26;16.90;35.00
69990;DHT22;57331;52.054;5.294;2022-09-14T02:35:54;17.70;35.40
69990;DHT22;57331;52.054;5.294;2022-09-14T02:38:28;18.10;38.50
69990;DHT22;57331;52.054;5.294;2022-09-14T02:41:25;16.90;35.00
69990;DHT22;57331;52.054;5.294;2022-09-14T02:49:33;17.70;48.90
69990;DHT22;57331;52.054;5.294;2022-09-14T02:55:04;18.20;49.40
69990;DHT22;57331;52.054;5.294;2022-09-14T02:58:02;16.30;35.20
69990;DHT22;57331;52.054;5.294;2022-09-14T03:00:32;16.20;48.40
69990;DHT22;57331;52.054;5.294;2022-09-14T03:07:56;16.80;35.70
69990;DHT22;57331;52.054;5.294;2022-09-14T03:10:25;16.70;35.40
69990;DHT22;57331;52.054;5.294;2022-09-14T03:15:22;17.30;49.40
69990;DHT22;57331;52.054;5.294;2022-09-14T03:17:50;18.10;50.30
69990;DHT22;57331;52.054;5.294;2022-09-14T03:20:20;16.70;36.30
69990;DHT22;57331;52.054;5.294;2022-09-14T03:22:47;18.20;50.30
69990;DHT22;57331;52.054;5.294;2022-09-14T03:27:42;17.20;49.80
69990;DHT22;57331;52.054;5.294;2022-09-14T03:37:31;17.50;50.10
69990;DHT22;57331;52.054;5.294;2022-09-14T03:44:53;17.10;43.50
69990;DHT22;57331;52.054;5.294;2022-09-14T03:49:50;17.50;50.60
69990;DHT22;57331;52.054;5.294;2022-09-14T03:57:14;16.60;37.10
69990;DHT22;57331;52.054;5.294;2022-09-14T03:59:41;17.70;51.30
69990;DHT22;57331;52.054;5.294;2022-09-14T04:02:09;18.00;51.50
69990;DHT22;57331;52.054;5.294;2022-09-14T04:04:36;17.50;50.20
69990;DHT22;57331;52.054;5.294;2022-09-14T04:09:30;15.30;50.90
69990;DHT22;57331;52.054;5.294;2022-09-14T04:14:26;16.40;38.30
69990;DHT22;57331;52.054;5.294;2022-09-14T04:16:55;15.90;51.60
69990;DHT22;57331;52.054;5.294;2022-09-14T04:19:21;15.20;51.70
69990;DHT22;57331;52.054;5.294;2022-09-14T04:21:48;16.40;52.60
69990;DHT22;57331;52.054;5.294;2022-09-14T04:26:44;15.20;47.70
69990;DHT22;57331;52.054;5.294;2022-09-14T04:29:11;16.30;39.10
69990;DHT22;57331;52.054;5.294;2022-09-14T04:34:05;15.40;52.40
69990;DHT22;57331;52.054;5.294;2022-09-14T04:39:01;15.10;52.30
69990;DHT22;57331;52.054;5.294;2022-09-14T04:41:29;14.90;40.30
69990;DHT22;57331;52.054;5.294;2022-09-14T04:46:29;15.00;52.00
69990;DHT22;57331;52.054;5.294;2022-09-14T04:51:27;17.10;40.60
69990;DHT22;57331;52.054;5.294;2022-09-14T04:53:56;16.10;40.20
69990;DHT22;57331;52.054;5.294;2022-09-14T04:58:55;16.10;40.50
69990;DHT22;57331;52.054;5.294;2022-09-14T05:01:29;15.70;52.20
69990;DHT22;57331;52.054;5.294;2022-09-14T05:03:56;16.10;40.30
69990;DHT22;57331;52.054;5.294;2022-09-14T05:06:27;16.10;40.50
69990;DHT22;57331;52.054;5.294;2022-09-14T05:08:55;17.30;55.00
69990;DHT22;57331;52.054;5.294;2022-09-14T05:11:25;16.60;55.00
69990;DHT22;57331;52.054;5.294;2022-09-14T05:13:54;16.10;41.10
69990;DHT22;57331;52.054;5.294;2022-09-14T05:16:26;16.70;55.10
69990;DHT22;57331;52.054;5.294;2022-09-14T05:18:55;17.40;43.50
69990;DHT22;57331;52.054;5.294;2022-09-14T05:21:23;16.60;41.50
69990;DHT22;57331;52.054;5.294;2022-09-14T05:24:03;17.30;45.30
69990;DHT22;57331;52.054;5.294;2022-09-14T05:26:32;17.40;51.00
69990;DHT22;57331;52.054;5.294;2022-09-14T05:31:30;16.00;41.20
69990;DHT22;57331;52.054;5.294;2022-09-14T05:33:57;16.00;41.10
69990;DHT22;57331;52.054;5.294;2022-09-14T05:36:25;16.00;41.10
69990;DHT22;57331;52.054;5.294;2022-09-14T05:38:52;19.50;43.20
69990;DHT22;57331;52.054;5.294;2022-09-14T05:46:15;16.00;41.80
69990;DHT22;57331;52.054;5.294;2022-09-14T05:51:16;16.00;41.90
69990;DHT22;57331;52.054;5.294;2022-09-14T05:53:50;16.50;55.80
69990;DHT22;57331;52.054;5.294;2022-09-14T05:56:18;16.00;41.80
69990;DHT22;57331;52.054;5.294;2022-09-14T06:01:17;16.80;48.90
69990;DHT22;57331;52.054;5.294;2022-09-14T06:03:45;14.80;54.60
69990;DHT22;57331;52.054;5.294;2022-09-14T06:06:15;15.90;41.50
69990;DHT22;57331;52.054;5.294;2022-09-14T06:08:42;16.20;51.50
69990;DHT22;57331;52.054;5.294;2022-09-14T06:11:15;16.00;41.80
69990;DHT22;57331;52.054;5.294;2022-09-14T06:13:43;17.30;51.00
69990;DHT22;57331;52.054;5.294;2022-09-14T06:16:12;16.00;41.90
69990;DHT22;57331;52.054;5.294;2022-09-14T06:18:40;14.80;54.90
69990;DHT22;57331;52.054;5.294;2022-09-14T06:21:08;16.50;55.50
69990;DHT22;57331;52.054;5.294;2022-09-14T06:26:04;16.20;41.30
69990;DHT22;57331;52.054;5.294;2022-09-14T06:33:26;17.00;55.20
69990;DHT22;57331;52.054;5.294;2022-09-14T06:36:05;16.40;40.70
69990;DHT22;57331;52.054;5.294;2022-09-14T06:41:04;16.70;40.80
69990;DHT22;57331;52.054;5.294;2022-09-14T06:43:34;16.80;40.80
69990;DHT22;57331;52.054;5.294;2022-09-14T06:46:04;16.80;40.40
69990;DHT22;57331;52.054;5.294;2022-09-14T06:48:34;16.80;40.30
69990;DHT22;57331;52.054;5.294;2022-09-14T06:51:17;16.00;48.40
69990;DHT22;57331;52.054;5.294;2022-09-14T06:53:45;15.90;52.70
69990;DHT22;57331;52.054;5.294;2022-09-14T06:58:40;16.80;39.80
69990;DHT22;57331;52.054;5.294;2022-09-14T07:01:10;16.70;40.00
69990;DHT22;57331;52.054;5.294;2022-09-14T07:03:38;15.60;52.90
69990;DHT22;57331;52.054;5.294;2022-09-14T07:06:10;16.80;40.40
69990;DHT22;57331;52.054;5.294;2022-09-14T07:08:37;17.60;49.30
69990;DHT22;57331;52.054;5.294;2022-09-14T07:11:08;16.90;40.20
69990;DHT22;57331;52.054;5.294;2022-09-14T07:13:35;18.10;54.20
69990;DHT22;57331;52.054;5.294;2022-09-14T07:18:30;17.70;51.00
69990;DHT22;57331;52.054;5.294;2022-09-14T07:21:05;18.00;49.70
69990;DHT22;57331;52.054;5.294;2022-09-14T07:23:35;17.10;39.70
69990;DHT22;57331;52.054;5.294;2022-09-14T07:28:31;17.10;39.20
69990;DHT22;57331;52.054;5.294;2022-09-14T07:33:27;17.10;39.40
69990;DHT22;57331;52.054;5.294;2022-09-14T07:38:21;16.00;51.80
69990;DHT22;57331;52.054;5.294;2022-09-14T07:41:10;16.60;52.20
69990;DHT22;57331;52.054;5.294;2022-09-14T07:48:34;16.10;51.70
69990;DHT22;57331;52.054;5.294;2022-09-14T07:51:05;16.20;51.40
69990;DHT22;57331;52.054;5.294;2022-09-14T07:53:40;16.40;51.60
69990;DHT22;57331;52.054;5.294;2022-09-14T07:56:09;16.10;51.40
69990;DHT22;57331;52.054;5.294;2022-09-14T07:58:37;16.30;41.50
69990;DHT22;57331;52.054;5.294;2022-09-14T08:01:16;17.50;38.50
69990;DHT22;57331;52.054;5.294;2022-09-14T08:03:51;17.50;38.40
69990;DHT22;57331;52.054;5.294;2022-09-14T08:06:21;17.50;38.40
69990;DHT22;57331;52.054;5.294;2022-09-14T08:08:49;17.40;38.20
69990;DHT22;57331;52.054;5.294;2022-09-14T08:11:28;17.70;38.30
69990;DHT22;57331;52.054;5.294;2022-09-14T08:14:06;19.00;51.30
69990;DHT22;57331;52.054;5.294;2022-09-14T08:19:07;19.00;51.60
69990;DHT22;57331;52.054;5.294;2022-09-14T08:24:13;19.10;51.30
69990;DHT22;57331;52.054;5.294;2022-09-14T08:31:36;17.20;41.70
69990;DHT22;57331;52.054;5.294;2022-09-14T08:34:05;18.20;36.80
69990;DHT22;57331;52.054;5.294;2022-09-14T08:36:38;17.00;39.60
69990;DHT22;57331;52.054;5.294;2022-09-14T08:39:09;18.30;37.00
69990;DHT22;57331;52.054;5.294;2022-09-14T08:41:42;17.10;49.10
69990;DHT22;57331;52.054;5.294;2022-09-14T08:44:33;19.80;50.40
69990;DHT22;57331;52.054;5.294;2022-09-14T08:47:24;17.10;49.00
69990;DHT22;57331;52.054;5.294;2022-09-14T08:50:10;17.40;49.00
69990;DHT22;57331;52.054;5.294;2022-09-14T08:52:52;18.50;36.20
69990;DHT22;57331;52.054;5.294;2022-09-14T08:58:01;18.60;36.10
69990;DHT22;57331;52.054;5.294;2022-09-14T09:00:45;18.60;36.00
69990;DHT22;57331;52.054;5.294;2022-09-14T09:09:22;18.40;35.90
69990;DHT22;57331;52.054;5.294;2022-09-14T09:11:53;19.60;49.30
69990;DHT22;57331;52.054;5.294;2022-09-14T09:14:39;18.70;35.70
69990;DHT22;57331;52.054;5.294;2022-09-14T09:22:25;18.90;35.30
69990;DHT22;57331;52.054;5.294;2022-09-14T09:24:54;18.90;35.20
69990;DHT22;57331;52.054;5.294;2022-09-14T09:27:22;19.00;34.90
69990;DHT22;57331;52.054;5.294;2022-09-14T09:32:23;17.70;46.50
69990;DHT22;57331;52.054;5.294;2022-09-14T09:37:58;18.00;46.00
69990;DHT22;57331;52.054;5.294;2022-09-14T09:40:35;20.10;46.70
69990;DHT22;57331;52.054;5.294;2022-09-14T09:45:49;19.70;33.30
69990;DHT22;57331;52.054;5.294;2022-09-14T09:48:19;18.50;44.50
69990;DHT22;57331;52.054;5.294;2022-09-14T09:51:11;20.00;32.40
69990;DHT22;57331;52.054;5.294;2022-09-14T09:53:51;20.00;32.10
69990;DHT22;57331;52.054;5.294;2022-09-14T09:56:24;20.10;32.10
69990;DHT22;57331;52.054;5.294;2022-09-14T09:58:51;21.70;44.90
69990;DHT22;57331;52.054;5.294;2022-09-14T10:06:44;21.60;44.20
69990;DHT22;57331;52.054;5.294;2022-09-14T10:09:17;20.30;31.30
69990;DHT22;57331;52.054;5.294;2022-09-14T10:11:46;19.40;43.10
69990;DHT22;57331;52.054;5.294;2022-09-14T10:14:28;18.90;42.80
69990;DHT22;57331;52.054;5.294;2022-09-14T10:17:18;19.70;42.70
69990;DHT22;57331;52.054;5.294;2022-09-14T10:19:50;19.80;31.70
69990;DHT22;57331;52.054;5.294;2022-09-14T10:22:26;19.80;31.30
69990;DHT22;57331;52.054;5.294;2022-09-14T10:30:09;19.80;31.60
69990;DHT22;57331;52.054;5.294;2022-09-14T10:32:38;20.60;44.10
69990;DHT22;57331;52.054;5.294;2022-09-14T10:35:13;19.80;31.30
69990;DHT22;57331;52.054;5.294;2022-09-14T10:40:31;19.70;31.30
69990;DHT22;57331;52.054;5.294;2022-09-14T10:43:14;19.10;32.30
69990;DHT22;57331;52.054;5.294;2022-09-14T10:45:51;19.70;31.30
69990;DHT22;57331;52.054;5.294;2022-09-14T10:57:48;20.20;30.90
69990;DHT22;57331;52.054;5.294;2022-09-14T11:00:19;20.30;30.80
69990;DHT22;57331;52.054;5.294;2022-09-14T11:02:54;20.40;30.60
69990;DHT22;57331;52.054;5.294;2022-09-14T11:05:37;20.50;30.40
69990;DHT22;57331;52.054;5.294;2022-09-14T11:19:36;20.90;29.40
69990;DHT22;57331;52.054;5.294;2022-09-14T11:22:24;19.50;40.40
69990;DHT22;57331;52.054;5.294;2022-09-14T11:27:42;20.90;29.30
69990;DHT22;57331;52.054;5.294;2022-09-14T11:30:21;21.00;28.90
69990;DHT22;57331;52.054;5.294;2022-09-14T11:32:56;21.00;28.90
69990;DHT22;57331;52.054;5.294;2022-09-14T11:35:40;21.00;28.40
69990;DHT22;57331;52.054;5.294;2022-09-14T11:38:20;21.00;28.40
69990;DHT22;57331;52.054;5.294;2022-09-14T11:41:09;23.50;28.80
69990;DHT22;57331;52.054;5.294;2022-09-14T11:43:57;21.00;27.80
69990;DHT22;57331;52.054;5.294;2022-09-14T11:53:49;20.30;38.00
69990;DHT22;57331;52.054;5.294;2022-09-14T11:58:57;23.00;31.30
69990;DHT22;57331;52.054;5.294;2022-09-14T12:01:36;21.80;26.70
69990;DHT22;57331;52.054;5.294;2022-09-14T12:06:47;22.00;26.50
69990;DHT22;57331;52.054;5.294;2022-09-14T12:11:49;22.10;26.20
69990;DHT22;57331;52.054;5.294;2022-09-14T12:20:26;23.90;35.60
69990;DHT22;57331;52.054;5.294;2022-09-14T12:23:31;21.90;32.80
69990;DHT22;57331;52.054;5.294;2022-09-14T12:43:53;23.50;21.80
69990;DHT22;57331;52.054;5.294;2022-09-14T12:54:21;25.60;24.90
69990;DHT22;57331;52.054;5.294;2022-09-14T12:59:41;24.70;28.50
69990;DHT22;57331;52.054;5.294;2022-09-14T13:04:41;26.00;19.50
69990;DHT22;57331;52.054;5.294;2022-09-14T13:07:14;26.80;18.10
69990;DHT22;57331;52.054;5.294;2022-09-14T13:09:50;27.20;24.10
69990;DHT22;57331;52.054;5.294;2022-09-14T13:15:05;27.50;23.10
69990;DHT22;57331;52.054;5.294;2022-09-14T13:17:32;28.20;16.20
69990;DHT22;57331;52.054;5.294;2022-09-14T13:20:02;27.70;21.10
69990;DHT22;57331;52.054;5.294;2022-09-14T13:22:32;27.10;20.50
69990;DHT22;57331;52.054;5.294;2022-09-14T13:25:00;30.00;21.20
69990;DHT22;57331;52.054;5.294;2022-09-14T13:27:28;29.70;20.30
69990;DHT22;57331;52.054;5.294;2022-09-14T13:32:34;30.30;13.10
69990;DHT22;57331;52.054;5.294;2022-09-14T13:35:05;32.60;18.00
69990;DHT22;57331;52.054;5.294;2022-09-14T13:37:32;31.20;16.50
69990;DHT22;57331;52.054;5.294;2022-09-14T13:39:59;31.90;16.50
69990;DHT22;57331;52.054;5.294;2022-09-14T13:42:26;31.00;10.60
69990;DHT22;57331;52.054;5.294;2022-09-14T13:44:55;31.10;10.80
69990;DHT22;57331;52.054;5.294;2022-09-14T13:47:23;32.60;16.60
69990;DHT22;57331;52.054;5.294;2022-09-14T13:49:52;31.30;10.00
69990;DHT22;57331;52.054;5.294;2022-09-14T13:52:26;31.20;9.90
69990;DHT22;57331;52.054;5.294;2022-09-14T13:55:41;31.40;10.00
69990;DHT22;57331;52.054;5.294;2022-09-14T13:58:19;33.00;8.30
69990;DHT22;57331;52.054;5.294;2022-09-14T14:01:07;34.10;12.10
69990;DHT22;57331;52.054;5.294;2022-09-14T14:03:47;35.30;10.90
69990;DHT22;57331;52.054;5.294;2022-09-14T14:06:27;35.00;8.90
69990;DHT22;57331;52.054;5.294;2022-09-14T14:09:06;36.00;4.70
69990;DHT22;57331;52.054;5.294;2022-09-14T14:11:36;33.70;9.70
69990;DHT22;57331;52.054;5.294;2022-09-14T14:14:24;32.00;10.90
69990;DHT22;57331;52.054;5.294;2022-09-14T14:19:39;31.20;7.00
69990;DHT22;57331;52.054;5.294;2022-09-14T14:24:51;27.10;15.70
69990;DHT22;57331;52.054;5.294;2022-09-14T14:27:42;28.50;17.60
69990;DHT22;57331;52.054;5.294;2022-09-14T14:30:20;26.20;13.80
69990;DHT22;57331;52.054;5.294;2022-09-14T14:32:51;25.90;12.10
69990;DHT22;57331;52.054;5.294;2022-09-14T14:35:25;25.50;18.60
69990;DHT22;57331;52.054;5.294;2022-09-14T14:40:21;25.90;19.40
69990;DHT22;57331;52.054;5.294;2022-09-14T14:42:48;26.50;19.70
69990;DHT22;57331;52.054;5.294;2022-09-14T14:45:21;28.80;20.20
69990;DHT22;57331;52.054;5.294;2022-09-14T14:47:54;27.90;18.20
69990;DHT22;57331;52.054;5.294;2022-09-14T14:52:50;31.30;15.50
69990;DHT22;57331;52.054;5.294;2022-09-14T14:55:18;31.50;10.50
69990;DHT22;57331;52.054;5.294;2022-09-14T14:57:49;33.80;11.20
69990;DHT22;57331;52.054;5.294;2022-09-14T15:00:22;34.20;7.30
69990;DHT22;57331;52.054;5.294;2022-09-14T15:02:49;39.30;8.00
69990;DHT22;57331;52.054;5.294;2022-09-14T15:05:16;36.20;5.40
69990;DHT22;57331;52.054;5.294;2022-09-14T15:07:44;36.70;3.40
69990;DHT22;57331;52.054;5.294;2022-09-14T15:10:14;36.10;2.70
69990;DHT22;57331;52.054;5.294;2022-09-14T15:12:41;34.60;10.20
69990;DHT22;57331;52.054;5.294;2022-09-14T15:15:15;34.30;4.40
69990;DHT22;57331;52.054;5.294;2022-09-14T15:17:43;33.40;8.90
69990;DHT22;57331;52.054;5.294;2022-09-14T15:20:10;34.60;4.30
69990;DHT22;57331;52.054;5.294;2022-09-14T15:22:38;35.20;4.10
69990;DHT22;57331;52.054;5.294;2022-09-14T15:25:07;35.80;3.50
69990;DHT22;57331;52.054;5.294;2022-09-14T15:27:34;36.30;3.10
69990;DHT22;57331;52.054;5.294;2022-09-14T15:30:02;36.90;2.40
69990;DHT22;57331;52.054;5.294;2022-09-14T15:32:29;37.60;1.80
69990;DHT22;57331;52.054;5.294;2022-09-14T15:34:56;38.00;1.20
69990;DHT22;57331;52.054;5.294;2022-09-14T15:37:23;38.00;1.00
69990;DHT22;57331;52.054;5.294;2022-09-14T15:39:50;37.70;1.00
69990;DHT22;57331;52.054;5.294;2022-09-14T15:42:17;37.40;1.00
69990;DHT22;57331;52.054;5.294;2022-09-14T15:44:44;35.80;3.00
69990;DHT22;57331;52.054;5.294;2022-09-14T15:47:12;36.80;1.00
69990;DHT22;57331;52.054;5.294;2022-09-14T15:49:42;36.10;1.00
69990;DHT22;57331;52.054;5.294;2022-09-14T15:52:10;35.10;1.70
69990;DHT22;57331;52.054;5.294;2022-09-14T15:54:37;34.10;2.70
69990;DHT22;57331;52.054;5.294;2022-09-14T15:57:09;33.10;3.60
69990;DHT22;57331;52.054;5.294;2022-09-14T15:59:36;32.30;4.40
69990;DHT22;57331;52.054;5.294;2022-09-14T16:02:03;31.50;4.90
69990;DHT22;57331;52.054;5.294;2022-09-14T16:04:37;30.70;5.70
69990;DHT22;57331;52.054;5.294;2022-09-14T16:07:05;30.10;6.70
69990;DHT22;57331;52.054;5.294;2022-09-14T16:09:38;28.50;14.40
69990;DHT22;57331;52.054;5.294;2022-09-14T16:12:06;29.40;7.80
69990;DHT22;57331;52.054;5.294;2022-09-14T16:14:33;29.10;9.40
69990;DHT22;57331;52.054;5.294;2022-09-14T16:17:00;28.70;9.80
69990;DHT22;57331;52.054;5.294;2022-09-14T16:19:27;28.20;18.30
69990;DHT22;57331;52.054;5.294;2022-09-14T16:21:54;28.10;18.10
69990;DHT22;57331;52.054;5.294;2022-09-14T16:24:22;28.10;10.60
69990;DHT22;57331;52.054;5.294;2022-09-14T16:26:52;28.80;10.40
69990;DHT22;57331;52.054;5.294;2022-09-14T16:29:21;29.80;16.90
69990;DHT22;57331;52.054;5.294;2022-09-14T16:31:50;29.70;16.30
69990;DHT22;57331;52.054;5.294;2022-09-14T16:34:20;29.90;9.10
69990;DHT22;57331;52.054;5.294;2022-09-14T16:36:49;30.10;8.90
69990;DHT22;57331;52.054;5.294;2022-09-14T16:39:19;31.00;14.90
69990;DHT22;57331;52.054;5.294;2022-09-14T16:41:46;30.20;15.70
69990;DHT22;57331;52.054;5.294;2022-09-14T16:44:16;29.20;15.50
69990;DHT22;57331;52.054;5.294;2022-09-14T16:46:44;29.30;17.20
69990;DHT22;57331;52.054;5.294;2022-09-14T16:49:11;28.90;10.50
69990;DHT22;57331;52.054;5.294;2022-09-14T16:51:38;28.20;10.30
69990;DHT22;57331;52.054;5.294;2022-09-14T16:54:06;27.50;18.60
69990;DHT22;57331;52.054;5.294;2022-09-14T16:56:35;27.30;19.50
69990;DHT22;57331;52.054;5.294;2022-09-14T16:59:03;27.30;20.70
69990;DHT22;57331;52.054;5.294;2022-09-14T17:01:41;25.00;20.60
69990;DHT22;57331;52.054;5.294;2022-09-14T17:04:14;25.60;21.00
69990;DHT22;57331;52.054;5.294;2022-09-14T17:06:43;25.00;13.60
69990;DHT22;57331;52.054;5.294;2022-09-14T17:09:13;24.80;14.20
69990;DHT22;57331;52.054;5.294;2022-09-14T17:11:40;23.40;21.30
69990;DHT22;57331;52.054;5.294;2022-09-14T17:14:26;24.30;15.10
69990;DHT22;57331;52.054;5.294;2022-09-14T17:16:54;24.70;23.00
69990;DHT22;57331;52.054;5.294;2022-09-14T17:21:49;23.80;16.30
69990;DHT22;57331;52.054;5.294;2022-09-14T17:24:19;23.80;21.20
69990;DHT22;57331;52.054;5.294;2022-09-14T17:31:42;23.10;18.00
69990;DHT22;57331;52.054;5.294;2022-09-14T17:34:11;21.90;26.00
69990;DHT22;57331;52.054;5.294;2022-09-14T17:36:39;22.50;26.80
69990;DHT22;57331;52.054;5.294;2022-09-14T17:41:39;22.30;19.90
69990;DHT22;57331;52.054;5.294;2022-09-14T17:44:09;22.80;26.60
69990;DHT22;57331;52.054;5.294;2022-09-14T17:46:38;21.10;28.30
69990;DHT22;57331;52.054;5.294;2022-09-14T17:49:17;21.10;28.70
69990;DHT22;57331;52.054;5.294;2022-09-14T17:51:44;21.80;29.30
69990;DHT22;57331;52.054;5.294;2022-09-14T17:54:12;22.70;30.00
69990;DHT22;57331;52.054;5.294;2022-09-14T17:56:39;21.30;29.80
69990;DHT22;57331;52.054;5.294;2022-09-14T17:59:10;22.80;30.60
69990;DHT22;57331;52.054;5.294;2022-09-14T18:01:37;20.50;29.80
69990;DHT22;57331;52.054;5.294;2022-09-14T18:04:06;21.40;22.10
69990;DHT22;57331;52.054;5.294;2022-09-14T18:06:38;21.00;30.50
69990;DHT22;57331;52.054;5.294;2022-09-14T18:09:28;21.30;22.50
69990;DHT22;57331;52.054;5.294;2022-09-14T18:11:56;20.60;30.90
69990;DHT22;57331;52.054;5.294;2022-09-14T18:14:25;21.10;22.70
69990;DHT22;57331;52.054;5.294;2022-09-14T18:26:47;20.90;23.60
69990;DHT22;57331;52.054;5.294;2022-09-14T18:29:16;22.20;24.30
69990;DHT22;57331;52.054;5.294;2022-09-14T18:34:11;21.10;28.40
69990;DHT22;57331;52.054;5.294;2022-09-14T18:39:07;20.00;24.90
69990;DHT22;57331;52.054;5.294;2022-09-14T18:44:02;19.40;33.60
69990;DHT22;57331;52.054;5.294;2022-09-14T18:46:29;19.50;24.20
69990;DHT22;57331;52.054;5.294;2022-09-14T18:48:58;21.90;35.00
69990;DHT22;57331;52.054;5.294;2022-09-14T18:51:27;20.60;31.80
69990;DHT22;57331;52.054;5.294;2022-09-14T18:53:59;20.50;29.10
69990;DHT22;57331;52.054;5.294;2022-09-14T18:56:28;20.00;34.70
69990;DHT22;57331;52.054;5.294;2022-09-14T18:59:01;20.10;25.10
69990;DHT22;57331;52.054;5.294;2022-09-14T19:08:52;20.80;37.10
69990;DHT22;57331;52.054;5.294;2022-09-14T19:11:24;18.80;35.70
69990;DHT22;57331;52.054;5.294;2022-09-14T19:13:56;18.40;36.50
69990;DHT22;57331;52.054;5.294;2022-09-14T19:16:25;19.50;26.70
69990;DHT22;57331;52.054;5.294;2022-09-14T19:18:52;18.60;37.20
69990;DHT22;57331;52.054;5.294;2022-09-14T19:21:21;18.80;37.60
69990;DHT22;57331;52.054;5.294;2022-09-14T19:24:02;19.30;27.10
69990;DHT22;57331;52.054;5.294;2022-09-14T19:26:36;19.20;27.20
69990;DHT22;57331;52.054;5.294;2022-09-14T19:29:11;18.00;38.00
69990;DHT22;57331;52.054;5.294;2022-09-14T19:34:05;19.60;32.50
69990;DHT22;57331;52.054;5.294;2022-09-14T19:36:33;18.50;38.90
69990;DHT22;57331;52.054;5.294;2022-09-14T19:39:03;18.80;27.80
69990;DHT22;57331;52.054;5.294;2022-09-14T19:41:31;18.50;39.40
69990;DHT22;57331;52.054;5.294;2022-09-14T19:43:59;18.80;28.20
69990;DHT22;57331;52.054;5.294;2022-09-14T19:46:27;17.90;39.40
69990;DHT22;57331;52.054;5.294;2022-09-14T19:51:24;18.70;28.40
69990;DHT22;57331;52.054;5.294;2022-09-14T19:53:54;21.10;29.60
69990;DHT22;57331;52.054;5.294;2022-09-14T19:56:23;20.10;41.40
69990;DHT22;57331;52.054;5.294;2022-09-14T19:58:55;18.60;28.80
69990;DHT22;57331;52.054;5.294;2022-09-14T20:01:23;18.60;28.90
69990;DHT22;57331;52.054;5.294;2022-09-14T20:06:27;18.50;29.10
69990;DHT22;57331;52.054;5.294;2022-09-14T20:09:00;19.30;32.70
69990;DHT22;57331;52.054;5.294;2022-09-14T20:11:28;19.20;31.60
69990;DHT22;57331;52.054;5.294;2022-09-14T20:13:57;18.20;29.70
69990;DHT22;57331;52.054;5.294;2022-09-14T20:16:30;18.10;30.10
69990;DHT22;57331;52.054;5.294;2022-09-14T20:19:01;17.70;42.70
69990;DHT22;57331;52.054;5.294;2022-09-14T20:23:56;17.30;33.90
69990;DHT22;57331;52.054;5.294;2022-09-14T20:36:31;17.90;32.80
69990;DHT22;57331;52.054;5.294;2022-09-14T20:41:31;16.20;45.40
69990;DHT22;57331;52.054;5.294;2022-09-14T20:43:59;16.90;38.30
69990;DHT22;57331;52.054;5.294;2022-09-14T20:46:28;16.40;46.00
69990;DHT22;57331;52.054;5.294;2022-09-14T20:49:04;17.00;33.50
69990;DHT22;57331;52.054;5.294;2022-09-14T20:56:30;16.20;46.80
69990;DHT22;57331;52.054;5.294;2022-09-14T20:58:59;18.00;48.00
69990;DHT22;57331;52.054;5.294;2022-09-14T21:01:29;16.80;34.40
69990;DHT22;57331;52.054;5.294;2022-09-14T21:04:08;15.70;47.20
69990;DHT22;57331;52.054;5.294;2022-09-14T21:06:37;16.50;47.50
69990;DHT22;57331;52.054;5.294;2022-09-14T21:09:05;16.80;34.60
69990;DHT22;57331;52.054;5.294;2022-09-14T21:13:59;16.00;47.70
69990;DHT22;57331;52.054;5.294;2022-09-14T21:16:29;16.80;34.90
69990;DHT22;57331;52.054;5.294;2022-09-14T21:19:25;15.70;47.80
69990;DHT22;57331;52.054;5.294;2022-09-14T21:21:53;17.00;48.40
69990;DHT22;57331;52.054;5.294;2022-09-14T21:24:21;16.90;35.10
69990;DHT22;57331;52.054;5.294;2022-09-14T21:29:18;16.90;35.20
69990;DHT22;57331;52.054;5.294;2022-09-14T21:34:14;15.70;43.90
69990;DHT22;57331;52.054;5.294;2022-09-14T21:36:46;16.80;35.20
69990;DHT22;57331;52.054;5.294;2022-09-14T21:39:16;12.90;33.20